Time;durP1;ratioP1;P1;durP2;ratioP2;P2;SDS_P1;SDS_P2;PMS_P1;PMS_P2;Temp;Humidity;BMP_temperature;BMP_pressure;BME280_temperature;BME280_humidity;BME280_pressure;Samples;Min_cycle;Max_cycle;Signal;HPM_P1;HPM_P2
2021/10/25 00:01:44;;;;;;;5.40;4.60;;;4.40;99.90;;;;;;5074978;28;20415;-66
2021/10/25 00:04:09;;;;;;;8.47;4.93;;;4.40;99.90;;;;;;5074395;28;20181;-66
2021/10/25 00:06:38;;;;;;;8.33;6.43;;;4.40;99.90;;;;;;5074600;28;20406;-67
2021/10/25 00:09:04;;;;;;;4.93;4.63;;;4.50;99.90;;;;;;5074637;28;20328;-66
2021/10/25 00:11:30;;;;;;;6.93;5.40;;;4.40;99.90;;;;;;5074526;28;20168;-65
2021/10/25 00:13:55;;;;;;;5.43;4.93;;;4.40;99.90;;;;;;5073477;28;20617;-67
2021/10/25 00:16:21;;;;;;;5.67;5.07;;;4.40;99.90;;;;;;5074209;28;20556;-66
2021/10/25 00:18:47;;;;;;;5.70;4.97;;;4.40;99.90;;;;;;5074081;28;20643;-66
2021/10/25 00:21:12;;;;;;;6.83;6.10;;;4.30;99.90;;;;;;5074399;28;20208;-66
2021/10/25 00:23:38;;;;;;;8.67;5.73;;;4.30;99.90;;;;;;5074560;28;20315;-66
2021/10/25 00:26:04;;;;;;;9.55;5.40;;;4.30;99.90;;;;;;5074483;28;20177;-66
2021/10/25 00:28:29;;;;;;;7.10;5.23;;;4.30;99.90;;;;;;5073592;28;20246;-66
2021/10/25 00:30:55;;;;;;;9.03;5.40;;;4.20;99.90;;;;;;5074046;28;20181;-66
2021/10/25 00:33:21;;;;;;;10.50;4.90;;;4.20;99.90;;;;;;5074425;28;20173;-65
2021/10/25 00:35:46;;;;;;;8.13;6.00;;;4.20;99.90;;;;;;5073994;28;20173;-66
2021/10/25 00:38:12;;;;;;;8.00;5.40;;;4.10;99.90;;;;;;5073726;28;20230;-66
2021/10/25 00:40:38;;;;;;;7.73;6.50;;;4.10;99.90;;;;;;5074184;28;20173;-66
2021/10/25 00:43:04;;;;;;;8.60;4.93;;;4.10;99.90;;;;;;5074055;28;20892;-65
2021/10/25 00:45:30;;;;;;;7.23;5.93;;;4.10;99.90;;;;;;5073336;28;20776;-66
2021/10/25 00:47:57;;;;;;;9.13;6.00;;;4.10;99.90;;;;;;5073188;28;20966;-65
2021/10/25 00:50:23;;;;;;;10.68;6.45;;;4.10;99.90;;;;;;5073978;28;20179;-66
2021/10/25 00:52:49;;;;;;;6.95;5.30;;;4.10;99.90;;;;;;5073800;28;20299;-65
2021/10/25 00:55:15;;;;;;;9.40;6.22;;;4.10;99.90;;;;;;5074030;28;20188;-66
2021/10/25 00:57:41;;;;;;;12.00;7.23;;;4.10;99.90;;;;;;5073430;28;20197;-66
2021/10/25 01:00:08;;;;;;;5.60;5.00;;;4.10;99.90;;;;;;5073400;28;20941;-66
2021/10/25 01:02:34;;;;;;;6.63;5.45;;;4.10;99.90;;;;;;5073797;28;20176;-66
2021/10/25 01:05:00;;;;;;;7.05;6.47;;;4.10;99.90;;;;;;5073746;28;20180;-66
2021/10/25 01:07:27;;;;;;;7.47;5.97;;;4.00;99.90;;;;;;5071387;28;20660;-67
2021/10/25 01:09:53;;;;;;;7.30;6.60;;;4.10;99.90;;;;;;5073804;28;20179;-66
2021/10/25 01:12:20;;;;;;;7.72;6.10;;;4.00;99.90;;;;;;5073191;28;20264;-66
2021/10/25 01:14:46;;;;;;;6.35;4.38;;;4.10;99.90;;;;;;5071962;28;20680;-67
2021/10/25 01:17:11;;;;;;;9.77;5.72;;;4.10;99.90;;;;;;5072971;28;20264;-66
2021/10/25 01:19:37;;;;;;;4.80;4.17;;;4.20;99.90;;;;;;5073319;28;20169;-66
2021/10/25 01:22:03;;;;;;;7.72;6.95;;;4.10;99.90;;;;;;5073559;28;20214;-66
2021/10/25 01:24:29;;;;;;;6.57;5.93;;;4.10;99.90;;;;;;5073434;28;20173;-66
2021/10/25 01:26:55;;;;;;;8.75;5.72;;;4.10;99.90;;;;;;5072996;28;20168;-67
2021/10/25 01:29:21;;;;;;;8.47;6.10;;;4.10;99.90;;;;;;5072786;28;20209;-66
2021/10/25 01:31:47;;;;;;;6.03;5.30;;;4.10;99.90;;;;;;5073374;28;20165;-66
2021/10/25 01:34:13;;;;;;;6.15;4.50;;;4.10;99.90;;;;;;5073355;28;20625;-66
2021/10/25 01:36:40;;;;;;;8.37;5.63;;;4.10;99.90;;;;;;5072511;28;20285;-65
2021/10/25 01:39:06;;;;;;;9.63;6.65;;;4.10;99.90;;;;;;5073046;28;20217;-66
2021/10/25 01:41:32;;;;;;;6.18;5.45;;;4.10;99.90;;;;;;5073084;28;20517;-66
2021/10/25 01:43:58;;;;;;;5.90;4.93;;;4.10;99.90;;;;;;5073221;28;20336;-66
2021/10/25 01:46:24;;;;;;;6.57;5.60;;;4.10;99.90;;;;;;5072755;28;20536;-66
2021/10/25 01:48:49;;;;;;;8.53;5.33;;;4.10;99.90;;;;;;5072912;28;20557;-67
2021/10/25 01:51:15;;;;;;;5.10;4.53;;;4.10;99.90;;;;;;5072754;28;20187;-66
2021/10/25 01:53:41;;;;;;;9.27;5.57;;;4.00;99.90;;;;;;5073275;28;20255;-66
2021/10/25 01:56:09;;;;;;;4.53;4.10;;;4.00;99.90;;;;;;5073258;28;20902;-66
2021/10/25 01:58:34;;;;;;;9.57;6.82;;;4.00;99.90;;;;;;5072781;28;20910;-66
2021/10/25 02:01:00;;;;;;;7.40;5.10;;;4.00;99.90;;;;;;5072857;28;20180;-66
2021/10/25 02:03:27;;;;;;;6.80;6.10;;;4.00;99.90;;;;;;5073024;28;20403;-66
2021/10/25 02:05:53;;;;;;;17.15;5.68;;;4.00;99.90;;;;;;5072883;28;20632;-67
2021/10/25 02:08:21;;;;;;;4.90;4.38;;;3.90;99.90;;;;;;5072052;28;20208;-66
2021/10/25 02:10:46;;;;;;;9.35;7.15;;;3.90;99.90;;;;;;5072573;28;20619;-66
2021/10/25 02:13:16;;;;;;;7.47;4.97;;;3.90;99.90;;;;;;5072618;28;20297;-66
2021/10/25 02:15:43;;;;;;;7.90;6.18;;;3.90;99.90;;;;;;5072674;28;20173;-66
2021/10/25 02:18:09;;;;;;;7.45;5.05;;;3.90;99.90;;;;;;5072540;28;20197;-67
2021/10/25 02:20:34;;;;;;;8.07;6.57;;;3.90;99.90;;;;;;5072977;28;20161;-66
2021/10/25 02:23:00;;;;;;;8.30;6.23;;;3.90;99.90;;;;;;5072789;28;20176;-66
2021/10/25 02:25:25;;;;;;;8.33;5.30;;;3.90;99.90;;;;;;5072798;28;20219;-67
2021/10/25 02:27:51;;;;;;;6.40;5.80;;;3.80;99.90;;;;;;5072235;28;20196;-67
2021/10/25 02:30:17;;;;;;;5.83;4.83;;;3.80;99.90;;;;;;5072358;28;20177;-67
2021/10/25 02:32:45;;;;;;;7.27;6.57;;;3.80;99.90;;;;;;5071007;28;20173;-66
2021/10/25 02:35:10;;;;;;;8.18;6.05;;;3.80;99.90;;;;;;5072408;28;20175;-66
2021/10/25 02:37:37;;;;;;;7.10;6.10;;;3.80;99.90;;;;;;5072358;28;20559;-66
2021/10/25 02:40:03;;;;;;;8.48;6.97;;;3.80;99.90;;;;;;5072641;28;20650;-67
2021/10/25 02:42:29;;;;;;;7.40;6.35;;;3.70;99.90;;;;;;5072846;28;20513;-66
2021/10/25 02:44:55;;;;;;;6.90;4.80;;;3.70;99.90;;;;;;5072298;28;20290;-66
2021/10/25 02:47:20;;;;;;;5.37;4.87;;;3.70;99.90;;;;;;5072211;28;20235;-66
2021/10/25 02:49:46;;;;;;;6.50;4.50;;;3.60;99.90;;;;;;5072696;28;20169;-66
2021/10/25 02:52:11;;;;;;;8.30;6.10;;;3.60;99.90;;;;;;5072758;28;20255;-66
2021/10/25 02:54:37;;;;;;;17.50;6.40;;;3.60;99.90;;;;;;5072512;28;20169;-66
2021/10/25 02:57:04;;;;;;;7.70;5.90;;;3.60;99.90;;;;;;5072096;28;20544;-67
2021/10/25 02:59:30;;;;;;;8.38;4.95;;;3.60;99.90;;;;;;5072268;28;20181;-66
2021/10/25 03:01:56;;;;;;;7.50;6.25;;;3.60;99.90;;;;;;5072744;28;20247;-66
2021/10/25 03:04:22;;;;;;;7.73;5.07;;;3.60;99.90;;;;;;5075279;28;20260;-65
2021/10/25 03:06:47;;;;;;;9.47;5.50;;;3.60;99.90;;;;;;5075653;28;20219;-66
2021/10/25 03:09:13;;;;;;;6.73;6.10;;;3.60;99.90;;;;;;5075750;28;20242;-66
2021/10/25 03:11:39;;;;;;;10.60;6.53;;;3.60;99.90;;;;;;5074344;28;20226;-67
2021/10/25 03:14:04;;;;;;;5.43;4.93;;;3.60;99.90;;;;;;5075869;28;20218;-66
2021/10/25 03:16:30;;;;;;;5.97;4.80;;;3.60;99.90;;;;;;5075391;28;20173;-66
2021/10/25 03:18:56;;;;;;;9.40;5.87;;;3.60;99.90;;;;;;5075880;28;20230;-66
2021/10/25 03:21:22;;;;;;;7.53;5.20;;;3.50;99.90;;;;;;5075737;28;20518;-66
2021/10/25 03:23:49;;;;;;;9.95;6.20;;;3.50;99.90;;;;;;5075519;28;20465;-66
2021/10/25 03:26:16;;;;;;;8.75;6.50;;;3.50;99.90;;;;;;5075383;28;20650;-66
2021/10/25 03:28:43;;;;;;;10.15;5.40;;;3.40;99.90;;;;;;5075191;28;20234;-66
2021/10/25 03:31:10;;;;;;;10.10;5.65;;;3.40;99.90;;;;;;5075765;28;20172;-66
2021/10/25 03:33:36;;;;;;;15.23;5.82;;;3.40;99.90;;;;;;5075188;28;20184;-65
2021/10/25 03:36:04;;;;;;;8.20;5.90;;;3.40;99.90;;;;;;5074849;28;20192;-66
2021/10/25 03:38:31;;;;;;;8.95;6.53;;;3.40;99.90;;;;;;5074902;28;20468;-66
2021/10/25 03:40:57;;;;;;;6.78;4.70;;;3.40;99.90;;;;;;5075509;28;20234;-66
2021/10/25 03:43:27;;;;;;;6.17;5.27;;;3.40;99.90;;;;;;5074854;28;20263;-66
2021/10/25 03:46:01;;;;;;;6.82;5.38;;;3.30;99.90;;;;;;5076388;28;20386;-66
2021/10/25 03:48:33;;;;;;;8.95;4.53;;;3.40;99.90;;;;;;5074914;28;20544;-66
2021/10/25 03:50:58;;;;;;;9.15;5.85;;;3.40;99.90;;;;;;5075443;28;20173;-66
2021/10/25 03:53:47;;;;;;;4.83;4.33;;;3.40;99.90;;;;;;5075047;28;20192;-66
2021/10/25 04:25:39;;;;;;;7.18;4.93;;;3.30;99.90;;;;;;5074393;28;20187;-67
2021/10/25 04:28:09;;;;;;;11.07;6.72;;;3.30;99.90;;;;;;5073617;28;20196;-66
2021/10/25 04:30:36;;;;;;;7.10;6.40;;;3.20;99.90;;;;;;5074590;28;20521;-66
2021/10/25 04:33:03;;;;;;;11.40;5.95;;;3.20;99.90;;;;;;5074334;28;20237;-67
2021/10/25 04:35:29;;;;;;;5.28;4.63;;;3.20;99.90;;;;;;5074251;28;20176;-66
2021/10/25 04:37:55;;;;;;;8.65;5.95;;;3.20;99.90;;;;;;5073429;28;20636;-66
2021/10/25 04:40:22;;;;;;;8.75;5.35;;;3.20;99.90;;;;;;5074416;28;20176;-65
2021/10/25 04:42:47;;;;;;;9.70;4.95;;;3.20;99.90;;;;;;5072715;28;20169;-66
2021/10/25 04:45:14;;;;;;;6.43;5.13;;;3.20;99.90;;;;;;5073895;28;20203;-66
2021/10/25 04:47:40;;;;;;;8.52;6.57;;;3.20;99.90;;;;;;5072327;28;20196;-66
2021/10/25 04:50:06;;;;;;;9.20;6.63;;;3.20;99.90;;;;;;5072790;28;20176;-66
2021/10/25 04:52:32;;;;;;;5.50;4.60;;;3.20;99.90;;;;;;5072901;28;20177;-66
2021/10/25 04:54:58;;;;;;;11.10;8.43;;;3.30;99.90;;;;;;5073592;28;20195;-66
2021/10/25 04:57:23;;;;;;;9.13;4.83;;;3.30;99.90;;;;;;5073216;28;20188;-66
2021/10/25 04:59:49;;;;;;;10.60;5.67;;;3.20;99.90;;;;;;5073800;28;20907;-66
2021/10/25 05:02:15;;;;;;;7.83;5.60;;;3.30;99.90;;;;;;5073091;28;20260;-66
2021/10/25 05:04:41;;;;;;;7.20;5.33;;;3.20;99.90;;;;;;5073580;28;20194;-67
2021/10/25 05:07:07;;;;;;;7.70;6.40;;;3.20;99.90;;;;;;5073482;28;20172;-66
2021/10/25 05:09:33;;;;;;;6.57;5.85;;;3.20;99.90;;;;;;5073407;28;20595;-66
2021/10/25 05:12:00;;;;;;;6.27;5.00;;;3.20;99.90;;;;;;5073514;28;20161;-65
2021/10/25 05:14:25;;;;;;;6.88;5.05;;;3.10;99.90;;;;;;5073262;28;20395;-65
2021/10/25 05:16:51;;;;;;;8.10;5.50;;;3.20;99.90;;;;;;5071334;28;20195;-66
2021/10/25 05:19:17;;;;;;;6.57;5.10;;;3.20;99.90;;;;;;5073163;28;20458;-66
2021/10/25 05:21:42;;;;;;;6.00;5.40;;;3.20;99.90;;;;;;5073769;28;20172;-65
2021/10/25 05:24:08;;;;;;;5.37;4.33;;;3.20;99.90;;;;;;5072899;28;20547;-66
2021/10/25 05:26:34;;;;;;;8.40;6.83;;;3.20;99.90;;;;;;5071529;28;20183;-65
2021/10/25 05:29:00;;;;;;;7.93;6.77;;;3.20;99.90;;;;;;5072969;28;20799;-66
2021/10/25 05:31:26;;;;;;;7.43;5.15;;;3.10;99.90;;;;;;5072699;28;20177;-65
2021/10/25 05:33:52;;;;;;;11.10;6.35;;;3.20;99.90;;;;;;5072935;28;20169;-66
2021/10/25 05:36:18;;;;;;;6.07;4.30;;;3.20;99.90;;;;;;5072581;28;20267;-67
2021/10/25 05:38:44;;;;;;;7.65;5.75;;;3.20;99.90;;;;;;5072570;28;20300;-67
2021/10/25 05:41:12;;;;;;;8.80;5.30;;;3.20;99.90;;;;;;5073122;28;20173;-67
2021/10/25 05:43:39;;;;;;;8.18;5.57;;;3.20;99.90;;;;;;5073000;28;20656;-67
2021/10/25 05:46:04;;;;;;;7.13;4.97;;;3.20;99.90;;;;;;5072638;28;20212;-67
2021/10/25 05:48:30;;;;;;;6.67;5.93;;;3.30;99.90;;;;;;5072506;28;20220;-70
2021/10/25 05:50:56;;;;;;;9.20;5.33;;;3.20;99.90;;;;;;5073074;28;20169;-68
2021/10/25 05:53:22;;;;;;;11.33;5.60;;;3.20;99.90;;;;;;5072998;28;20191;-68
2021/10/25 05:55:48;;;;;;;10.57;6.20;;;3.20;99.90;;;;;;5073026;28;20172;-67
2021/10/25 05:58:20;;;;;;;7.07;6.03;;;3.20;99.90;;;;;;5071964;28;20784;-67
2021/10/25 06:00:53;;;;;;;8.27;6.20;;;3.10;99.90;;;;;;5072077;28;20604;-68
2021/10/25 06:03:23;;;;;;;7.90;5.55;;;3.20;99.90;;;;;;5071791;28;20180;-67
2021/10/25 06:05:49;;;;;;;8.02;6.20;;;3.20;99.90;;;;;;5072911;28;20204;-68
2021/10/25 06:08:15;;;;;;;10.23;6.45;;;3.20;99.90;;;;;;5072061;28;20739;-67
2021/10/25 06:10:41;;;;;;;6.90;4.47;;;3.20;99.90;;;;;;5072648;28;20234;-66
2021/10/25 06:13:10;;;;;;;6.63;5.75;;;3.20;99.90;;;;;;5072900;28;20444;-68
2021/10/25 06:15:41;;;;;;;10.27;7.07;;;3.30;99.90;;;;;;5072842;28;20222;-66
2021/10/25 06:18:08;;;;;;;5.53;5.03;;;3.30;99.90;;;;;;5072187;28;20196;-66
2021/10/25 06:20:37;;;;;;;6.00;5.32;;;3.40;99.90;;;;;;5072617;28;20222;-66
2021/10/25 06:23:11;;;;;;;7.38;6.65;;;3.50;99.90;;;;;;5072236;28;20647;-68
2021/10/25 06:25:37;;;;;;;8.80;6.93;;;3.50;99.90;;;;;;5072448;28;20172;-66
2021/10/25 06:28:03;;;;;;;9.80;6.60;;;3.50;99.90;;;;;;5072028;28;20280;-67
2021/10/25 06:30:29;;;;;;;10.43;8.10;;;3.60;99.90;;;;;;5072593;28;20200;-67
2021/10/25 06:32:55;;;;;;;6.40;5.80;;;3.60;99.90;;;;;;5072601;28;20251;-67
2021/10/25 06:35:25;;;;;;;7.15;6.10;;;3.60;99.90;;;;;;5072499;28;20430;-67
2021/10/25 06:37:57;;;;;;;11.23;7.30;;;3.60;99.90;;;;;;5074002;28;20192;-67
2021/10/25 06:40:24;;;;;;;10.75;5.45;;;3.60;99.90;;;;;;5076354;28;20181;-67
2021/10/25 06:42:51;;;;;;;9.10;6.25;;;3.70;99.90;;;;;;5076305;28;20165;-67
2021/10/25 06:45:20;;;;;;;8.65;6.25;;;3.70;99.90;;;;;;5076375;28;20177;-67
2021/10/25 06:47:47;;;;;;;14.50;8.63;;;3.70;99.90;;;;;;5074261;28;20273;-67
2021/10/25 06:50:14;;;;;;;5.50;4.82;;;3.80;99.90;;;;;;5076331;28;20192;-67
2021/10/25 06:52:40;;;;;;;10.68;7.20;;;3.90;99.90;;;;;;5076206;28;20654;-67
2021/10/25 06:55:07;;;;;;;9.23;6.27;;;3.90;99.90;;;;;;5076185;28;20169;-67
2021/10/25 06:57:33;;;;;;;6.47;5.88;;;3.90;99.90;;;;;;5075581;28;20238;-67
2021/10/25 07:00:00;;;;;;;9.65;7.30;;;3.90;99.90;;;;;;5076098;28;20222;-67
2021/10/25 07:02:27;;;;;;;12.90;8.60;;;4.00;99.90;;;;;;5076119;28;20505;-67
2021/10/25 07:04:53;;;;;;;9.40;6.50;;;4.10;99.90;;;;;;5076195;28;20574;-71
2021/10/25 07:07:23;;;;;;;7.90;7.05;;;4.20;99.90;;;;;;5075634;28;20169;-67
2021/10/25 07:09:48;;;;;;;12.10;8.20;;;4.40;99.90;;;;;;5076081;28;20298;-68
2021/10/25 07:12:14;;;;;;;7.53;6.27;;;4.50;99.90;;;;;;5075786;28;20174;-67
2021/10/25 07:14:41;;;;;;;9.67;8.13;;;4.60;99.90;;;;;;5075822;28;20240;-67
2021/10/25 07:20:04;;;;;;;9.57;5.85;;;4.70;99.90;;;;;;5075972;28;20177;-68
2021/10/25 07:59:41;;;;;;;7.60;6.88;;;5.00;99.90;;;;;;5074551;28;20227;-67
2021/10/25 08:13:29;;;;;;;6.00;5.40;;;13.90;99.90;;;;;;5074547;28;20173;-68
2021/10/25 08:15:56;;;;;;;5.53;4.97;;;14.70;99.90;;;;;;5074465;28;20560;-69
2021/10/25 08:18:39;;;;;;;5.60;5.10;;;15.40;98.90;;;;;;5074100;28;20534;-68
2021/10/25 08:21:05;;;;;;;7.27;5.60;;;16.10;98.50;;;;;;5074684;28;20433;-68
2021/10/25 08:23:30;;;;;;;7.10;5.40;;;16.70;96.50;;;;;;5074231;28;20822;-68
2021/10/25 08:25:56;;;;;;;6.60;5.77;;;16.90;94.40;;;;;;5072992;28;20169;-68
2021/10/25 08:28:22;;;;;;;7.57;5.43;;;16.60;93.50;;;;;;5073555;28;20613;-68
2021/10/25 08:30:48;;;;;;;5.90;5.30;;;16.10;94.30;;;;;;5074302;28;20217;-68
2021/10/25 08:36:21;;;;;;;5.33;4.67;;;16.00;95.80;;;;;;5051366;28;20435;-68
2021/10/25 08:41:33;;;;;;;6.23;5.63;;;17.40;93.50;;;;;;5065825;28;20392;-68
2021/10/25 08:44:00;;;;;;;4.87;4.47;;;17.70;91.90;;;;;;5073980;28;20466;-68
2021/10/25 08:46:29;;;;;;;6.23;5.50;;;17.80;91.60;;;;;;5073622;28;20393;-67
2021/10/25 08:48:56;;;;;;;5.97;5.13;;;17.30;91.30;;;;;;5073840;28;20525;-68
2021/10/25 08:51:25;;;;;;;5.30;4.80;;;16.90;92.40;;;;;;5074210;28;20390;-68
2021/10/25 08:53:51;;;;;;;6.40;5.40;;;16.60;92.40;;;;;;5073950;28;20759;-68
2021/10/25 08:56:18;;;;;;;5.70;5.17;;;16.00;93.10;;;;;;5073882;28;20375;-68
2021/10/25 08:58:46;;;;;;;6.60;5.33;;;15.20;94.10;;;;;;5073605;28;20442;-68
2021/10/25 09:01:23;;;;;;;7.63;5.23;;;14.40;95.10;;;;;;5073642;28;20386;-68
2021/10/25 09:04:07;;;;;;;4.97;4.13;;;13.90;96.40;;;;;;5073735;28;20532;-68
2021/10/25 09:06:36;;;;;;;5.07;4.57;;;13.50;97.30;;;;;;5073387;28;20396;-68
2021/10/25 09:09:06;;;;;;;5.60;5.10;;;13.40;98.10;;;;;;5073601;28;20461;-68
2021/10/25 09:11:32;;;;;;;5.30;4.90;;;13.30;98.40;;;;;;5073594;28;20386;-68
2021/10/25 09:13:58;;;;;;;5.83;5.23;;;13.10;98.70;;;;;;5073758;28;20385;-67
2021/10/25 09:16:25;;;;;;;8.20;5.60;;;13.10;99.10;;;;;;5073245;28;20411;-67
2021/10/25 09:18:51;;;;;;;4.87;4.37;;;13.10;99.20;;;;;;5073195;28;20450;-68
2021/10/25 09:21:17;;;;;;;5.80;5.20;;;13.10;99.50;;;;;;5073479;28;20442;-67
2021/10/25 09:23:43;;;;;;;5.03;4.50;;;13.00;99.40;;;;;;5073338;28;20392;-67
2021/10/25 09:26:13;;;;;;;5.60;5.10;;;13.00;99.90;;;;;;5073215;28;20411;-67
2021/10/25 09:28:48;;;;;;;5.20;4.63;;;13.00;99.90;;;;;;5073048;28;20445;-67
2021/10/25 09:31:30;;;;;;;5.40;4.50;;;13.20;99.90;;;;;;5073039;28;20449;-67
2021/10/25 09:34:00;;;;;;;5.00;4.27;;;13.30;99.90;;;;;;5073310;28;20907;-67
2021/10/25 09:36:40;;;;;;;5.13;4.67;;;13.40;99.60;;;;;;5072691;28;20439;-67
2021/10/25 09:41:48;;;;;;;5.40;4.87;;;13.80;99.00;;;;;;5073343;28;20409;-67
2021/10/25 09:49:53;;;;;;;4.50;4.10;;;14.40;98.30;;;;;;5072916;28;20456;-67
2021/10/25 09:52:27;;;;;;;4.93;4.43;;;15.00;98.10;;;;;;5072674;28;20437;-68
2021/10/25 09:54:59;;;;;;;5.10;4.67;;;15.70;96.40;;;;;;5072735;28;20373;-67
2021/10/25 09:57:34;;;;;;;4.77;4.37;;;16.20;95.60;;;;;;5072416;28;20410;-68
2021/10/25 09:59:59;;;;;;;6.80;4.40;;;16.80;94.80;;;;;;5072990;28;20388;-68
2021/10/25 10:02:27;;;;;;;4.40;3.77;;;17.20;93.70;;;;;;5072898;28;20396;-69
2021/10/25 10:04:58;;;;;;;3.53;3.13;;;17.30;92.70;;;;;;5072932;28;20575;-68
2021/10/25 10:07:27;;;;;;;3.30;3.00;;;17.50;92.50;;;;;;5072371;28;20459;-68
2021/10/25 10:09:53;;;;;;;4.10;3.70;;;18.00;91.80;;;;;;5072832;28;20781;-68
2021/10/25 10:12:23;;;;;;;3.43;3.20;;;18.50;91.00;;;;;;5074099;28;20765;-68
2021/10/25 10:14:52;;;;;;;5.80;4.13;;;18.90;90.40;;;;;;5076654;28;20729;-68
2021/10/25 10:17:35;;;;;;;3.80;3.40;;;19.10;90.00;;;;;;5076337;28;20479;-68
2021/10/25 10:20:16;;;;;;;3.40;3.10;;;19.40;87.70;;;;;;5076904;28;20376;-68
2021/10/25 10:22:48;;;;;;;4.00;3.70;;;19.30;86.60;;;;;;5076749;28;20411;-68
2021/10/25 10:25:26;;;;;;;3.87;2.87;;;19.30;86.30;;;;;;5077084;28;20393;-68
2021/10/25 10:28:04;;;;;;;3.23;2.90;;;19.20;85.30;;;;;;5076168;28;20553;-68
2021/10/25 10:30:31;;;;;;;2.50;2.30;;;18.90;84.10;;;;;;5076479;28;20385;-68
2021/10/25 10:33:02;;;;;;;2.77;2.57;;;18.60;84.50;;;;;;5076715;28;20404;-68
2021/10/25 10:35:41;;;;;;;3.17;2.97;;;18.20;85.60;;;;;;5076280;28;20382;-68
2021/10/25 10:38:07;;;;;;;4.90;2.60;;;17.90;85.90;;;;;;5075995;28;20488;-68
2021/10/25 10:40:53;;;;;;;4.07;3.13;;;17.60;86.10;;;;;;5076591;28;20402;-67
2021/10/25 10:43:24;;;;;;;2.93;2.73;;;17.40;87.00;;;;;;5076517;28;20191;-68
2021/10/25 10:46:04;;;;;;;3.50;3.30;;;17.30;88.10;;;;;;5075463;28;20495;-68
2021/10/25 10:48:34;;;;;;;3.03;2.40;;;17.10;87.50;;;;;;5075630;28;20461;-68
2021/10/25 10:51:03;;;;;;;4.50;3.00;;;16.70;88.40;;;;;;5076242;28;20468;-68
2021/10/25 10:53:33;;;;;;;2.80;2.60;;;16.60;90.00;;;;;;5076215;28;20410;-68
2021/10/25 10:56:06;;;;;;;4.03;3.07;;;16.50;90.30;;;;;;5076313;28;20812;-68
2021/10/25 10:58:49;;;;;;;2.47;2.27;;;16.40;90.20;;;;;;5075749;28;20607;-68
2021/10/25 11:01:15;;;;;;;3.93;2.80;;;16.50;90.00;;;;;;5076204;28;20381;-67
2021/10/25 11:03:41;;;;;;;3.07;2.87;;;16.50;90.20;;;;;;5075917;28;20460;-68
2021/10/25 11:06:11;;;;;;;3.17;2.87;;;16.40;90.10;;;;;;5075901;28;20662;-68
2021/10/25 11:08:43;;;;;;;2.80;2.60;;;16.10;90.50;;;;;;5075418;28;20664;-68
2021/10/25 11:11:21;;;;;;;3.63;3.30;;;15.90;91.00;;;;;;5075754;28;20898;-67
2021/10/25 11:13:51;;;;;;;3.90;3.30;;;15.80;91.40;;;;;;5075750;28;20407;-68
2021/10/25 11:16:24;;;;;;;6.33;3.37;;;15.70;92.00;;;;;;5075644;28;20408;-68
2021/10/25 11:18:53;;;;;;;3.63;3.10;;;15.60;92.00;;;;;;5075612;28;20963;-67
2021/10/25 11:21:28;;;;;;;2.70;2.50;;;15.60;92.30;;;;;;5075633;28;20367;-68
2021/10/25 11:24:13;;;;;;;2.77;2.57;;;15.60;92.50;;;;;;5074531;28;20396;-69
2021/10/25 11:26:48;;;;;;;4.90;2.87;;;15.50;92.30;;;;;;5073922;28;20785;-68
2021/10/25 11:29:17;;;;;;;3.10;2.90;;;15.50;92.60;;;;;;5074189;28;20515;-68
2021/10/25 11:31:46;;;;;;;3.07;2.80;;;15.40;93.00;;;;;;5075433;28;20399;-68
2021/10/25 11:34:18;;;;;;;2.80;2.60;;;15.30;92.40;;;;;;5075685;28;20394;-67
2021/10/25 11:37:06;;;;;;;3.00;2.20;;;15.10;93.20;;;;;;5074861;28;20460;-68
2021/10/25 11:39:41;;;;;;;2.43;2.23;;;15.10;93.30;;;;;;5075555;28;20407;-67
2021/10/25 11:42:12;;;;;;;2.70;2.50;;;15.10;92.90;;;;;;5075079;28;20423;-69
2021/10/25 11:44:44;;;;;;;2.60;2.40;;;15.10;93.20;;;;;;5075261;28;20413;-68
2021/10/25 11:47:37;;;;;;;2.37;2.27;;;15.00;93.90;;;;;;5073521;28;20381;-68
2021/10/25 11:50:08;;;;;;;3.53;2.77;;;15.00;93.60;;;;;;5074566;28;20415;-69
2021/10/25 11:52:55;;;;;;;2.00;1.80;;;15.00;92.80;;;;;;5075328;28;20787;-68
2021/10/25 11:55:25;;;;;;;2.77;2.00;;;15.10;92.50;;;;;;5075061;28;20445;-70
2021/10/25 11:58:14;;;;;;;2.90;2.60;;;15.10;92.50;;;;;;5074500;28;20912;-68
2021/10/25 12:00:44;;;;;;;2.73;2.53;;;15.10;93.00;;;;;;5074519;28;20418;-68
2021/10/25 12:03:12;;;;;;;2.53;2.43;;;15.20;93.40;;;;;;5074986;28;20391;-66
2021/10/25 12:05:39;;;;;;;2.83;2.60;;;15.20;92.70;;;;;;5075015;28;20710;-67
2021/10/25 12:08:08;;;;;;;2.30;2.10;;;15.20;92.50;;;;;;5073296;28;20520;-67
2021/10/25 12:10:37;;;;;;;2.67;2.47;;;15.30;92.50;;;;;;5075004;28;20377;-71
2021/10/25 12:13:05;;;;;;;1.87;1.73;;;15.50;91.60;;;;;;5074592;28;20757;-70
2021/10/25 12:15:34;;;;;;;2.67;2.47;;;15.50;91.70;;;;;;5074494;28;20545;-70
2021/10/25 12:18:04;;;;;;;1.80;1.70;;;15.60;91.70;;;;;;5074173;28;20422;-71
2021/10/25 12:20:33;;;;;;;2.50;2.40;;;15.70;91.20;;;;;;5074046;28;20951;-71
2021/10/25 12:23:01;;;;;;;2.00;1.83;;;15.80;91.50;;;;;;5074635;28;20480;-69
2021/10/25 12:25:30;;;;;;;5.20;2.33;;;15.80;91.20;;;;;;5074696;28;20378;-69
2021/10/25 12:27:59;;;;;;;1.50;1.40;;;15.90;91.30;;;;;;5073836;28;22328;-68
2021/10/25 12:30:27;;;;;;;4.57;2.10;;;15.90;90.90;;;;;;5074534;28;20461;-69
2021/10/25 12:32:56;;;;;;;4.37;1.97;;;16.00;90.80;;;;;;5074464;28;20435;-68
2021/10/25 12:35:34;;;;;;;3.33;2.10;;;16.00;90.60;;;;;;5072521;28;20392;-70
2021/10/25 12:38:02;;;;;;;2.10;1.90;;;16.00;91.00;;;;;;5070370;28;20480;-69
2021/10/25 12:40:29;;;;;;;1.90;1.80;;;16.10;90.80;;;;;;5072450;28;20175;-71
2021/10/25 12:43:04;;;;;;;3.67;2.20;;;16.10;90.90;;;;;;5072194;28;20468;-69
2021/10/25 12:45:44;;;;;;;1.97;1.83;;;16.10;90.80;;;;;;5072543;28;20385;-69
2021/10/25 12:48:12;;;;;;;1.60;1.50;;;16.10;91.10;;;;;;5072029;28;20450;-70
2021/10/25 12:50:41;;;;;;;2.03;1.83;;;16.10;90.70;;;;;;5071280;28;20385;-70
2021/10/25 12:53:11;;;;;;;2.37;2.07;;;16.10;90.80;;;;;;5073155;28;20449;-70
2021/10/25 12:55:38;;;;;;;1.87;1.77;;;16.10;90.90;;;;;;5074133;28;20419;-70
2021/10/25 12:58:09;;;;;;;2.13;2.00;;;16.10;90.80;;;;;;5073298;28;20952;-71
2021/10/25 13:00:36;;;;;;;1.70;1.60;;;16.10;91.00;;;;;;5073364;28;20911;-69
2021/10/25 13:03:11;;;;;;;1.73;1.60;;;16.10;91.20;;;;;;5074463;28;20431;-69
2021/10/25 13:05:38;;;;;;;1.83;1.73;;;16.10;91.20;;;;;;5074833;28;20381;-70
2021/10/25 13:08:06;;;;;;;1.97;1.77;;;16.20;91.10;;;;;;5074210;28;20451;-70
2021/10/25 13:10:36;;;;;;;2.00;1.90;;;16.20;91.00;;;;;;5074082;28;20385;-70
2021/10/25 13:13:04;;;;;;;2.40;2.20;;;16.30;91.00;;;;;;5073753;28;20399;-69
2021/10/25 13:15:30;;;;;;;1.70;1.60;;;16.40;90.50;;;;;;5074170;28;20473;-70
2021/10/25 13:17:58;;;;;;;2.40;2.00;;;16.60;90.50;;;;;;5073172;28;20429;-69
2021/10/25 13:20:27;;;;;;;2.03;1.73;;;16.70;90.30;;;;;;5073379;28;20424;-70
2021/10/25 13:22:55;;;;;;;1.67;1.57;;;16.80;89.60;;;;;;5072343;28;20384;-69
2021/10/25 13:25:23;;;;;;;2.17;1.80;;;16.90;87.80;;;;;;5073284;28;20454;-69
2021/10/25 13:27:49;;;;;;;1.30;1.27;;;17.00;88.30;;;;;;5072752;28;20452;-69
2021/10/25 13:30:16;;;;;;;1.63;1.53;;;17.10;86.70;;;;;;5073539;28;20444;-69
2021/10/25 13:32:43;;;;;;;2.90;2.70;;;17.20;85.90;;;;;;5073467;28;20371;-69
2021/10/25 13:35:09;;;;;;;1.70;1.60;;;17.40;85.30;;;;;;5073126;28;20388;-69
2021/10/25 13:37:36;;;;;;;1.97;1.47;;;17.50;84.80;;;;;;5072881;28;20776;-69
2021/10/25 13:40:02;;;;;;;1.50;1.40;;;17.60;84.60;;;;;;5073351;28;20389;-67
2021/10/25 13:42:28;;;;;;;4.00;1.80;;;17.70;83.20;;;;;;5073112;28;20973;-70
2021/10/25 13:44:53;;;;;;;1.67;1.57;;;17.70;82.50;;;;;;5073268;28;20366;-68
2021/10/25 13:47:19;;;;;;;1.60;1.50;;;17.80;82.00;;;;;;5071998;28;20688;-69
2021/10/25 13:49:45;;;;;;;2.20;1.23;;;17.70;80.70;;;;;;5072893;28;20199;-70
2021/10/25 13:52:11;;;;;;;1.47;1.37;;;17.70;79.50;;;;;;5073150;28;20252;-70
2021/10/25 13:54:38;;;;;;;2.03;1.10;;;17.70;78.80;;;;;;5073293;28;20731;-69
2021/10/25 13:57:08;;;;;;;1.20;1.10;;;17.70;78.60;;;;;;5072676;28;20421;-70
2021/10/25 13:59:35;;;;;;;1.57;1.47;;;17.70;79.60;;;;;;5073208;28;20417;-69
2021/10/25 14:02:03;;;;;;;1.63;1.30;;;17.60;79.80;;;;;;5072974;28;20915;-69
2021/10/25 14:04:28;;;;;;;1.47;1.40;;;17.60;81.00;;;;;;5073062;28;20503;-70
2021/10/25 14:06:55;;;;;;;1.73;1.30;;;17.60;80.10;;;;;;5072763;28;20481;-68
2021/10/25 14:09:20;;;;;;;1.17;1.10;;;17.60;80.10;;;;;;5071636;28;20687;-68
2021/10/25 14:11:50;;;;;;;2.97;1.53;;;17.60;80.30;;;;;;5072877;28;20421;-68
2021/10/25 14:14:19;;;;;;;1.40;1.30;;;17.60;81.10;;;;;;5072756;28;20158;-70
2021/10/25 14:16:51;;;;;;;2.67;1.70;;;17.60;80.10;;;;;;5072317;28;20384;-69
2021/10/25 14:19:22;;;;;;;0.90;0.90;;;17.60;79.30;;;;;;5072724;28;20551;-70
2021/10/25 14:21:50;;;;;;;1.10;1.10;;;17.60;79.60;;;;;;5072921;28;20377;-69
2021/10/25 14:24:17;;;;;;;1.23;1.13;;;17.50;80.10;;;;;;5072614;28;20750;-68
2021/10/25 14:26:43;;;;;;;1.40;1.30;;;17.50;80.10;;;;;;5072224;28;20391;-70
2021/10/25 14:29:09;;;;;;;1.30;1.20;;;17.50;79.50;;;;;;5072642;28;20512;-70
2021/10/25 14:31:37;;;;;;;1.43;1.10;;;17.50;78.60;;;;;;5072889;28;20379;-69